CTV620 WAYY-WAPP
Flight info
| Callsign | CTV620 |
|---|---|
| Flight time | 1h 26m |
| Altitude | 36000 |
| Route | TEGEN DCT HANTA |
| Aircraft | A320/M-SDE3FGHIRWY/LB1 |
Departure
| Time | 2026-04-28 08:51 |
|---|---|
| Airport | Mozes Kilangin Airport (WAYY) |
Arrival
| Time | 2026-04-28 10:18 |
|---|---|
| Airport | Pattimura International Airport (WAPP) |
| Time | Latitude | Longitude | Altitude | Speed | Heading |
|---|---|---|---|---|---|
| 2026-04-28 08:39 | -4.53005 | 136.88311 | 110 ft | 0 kts | 211° |
| 2026-04-28 08:43 | -4.53004 | 136.88312 | 110 ft | 2 kts | 211° |
| 2026-04-28 08:43 | -4.52983 | 136.88325 | 110 ft | 4 kts | 217° |
| 2026-04-28 08:43 | -4.52963 | 136.88343 | 109 ft | 4 kts | 232° |
| 2026-04-28 08:43 | -4.52951 | 136.88365 | 110 ft | 4 kts | 277° |
| 2026-04-28 08:44 | -4.52955 | 136.88377 | 110 ft | 1 kts | 299° |
| 2026-04-28 08:44 | -4.52955 | 136.88378 | 110 ft | 0 kts | 299° |
| 2026-04-28 08:46 | -4.52952 | 136.88373 | 109 ft | 3 kts | 299° |
| 2026-04-28 08:46 | -4.52934 | 136.88341 | 108 ft | 6 kts | 301° |
| 2026-04-28 08:47 | -4.52900 | 136.88286 | 110 ft | 12 kts | 302° |
| 2026-04-28 08:47 | -4.52853 | 136.88212 | 110 ft | 13 kts | 302° |
| 2026-04-28 08:47 | -4.52804 | 136.88135 | 110 ft | 14 kts | 302° |
| 2026-04-28 08:47 | -4.52770 | 136.88095 | 110 ft | 5 kts | 342° |
| 2026-04-28 08:48 | -4.52734 | 136.88108 | 109 ft | 7 kts | 30° |
| 2026-04-28 08:48 | -4.52684 | 136.88139 | 110 ft | 8 kts | 32° |
| 2026-04-28 08:48 | -4.52637 | 136.88165 | 110 ft | 7 kts | 17° |
| 2026-04-28 08:48 | -4.52607 | 136.88156 | 109 ft | 7 kts | 319° |
| 2026-04-28 08:49 | -4.52571 | 136.88100 | 108 ft | 12 kts | 301° |
| 2026-04-28 08:49 | -4.52521 | 136.88019 | 109 ft | 15 kts | 302° |
| 2026-04-28 08:49 | -4.52466 | 136.87930 | 108 ft | 12 kts | 301° |
| 2026-04-28 08:49 | -4.52453 | 136.87871 | 109 ft | 8 kts | 272° |
| 2026-04-28 08:50 | -4.52442 | 136.87836 | 109 ft | 3 kts | 319° |
| 2026-04-28 08:50 | -4.52421 | 136.87839 | 109 ft | 4 kts | 37° |
| 2026-04-28 08:50 | -4.52424 | 136.87863 | 109 ft | 4 kts | 120° |
| 2026-04-28 08:50 | -4.52432 | 136.87875 | 109 ft | 9 kts | 122° |
| 2026-04-28 08:51 | -4.52609 | 136.88160 | 108 ft | 84 kts | 122° |
| 2026-04-28 08:51 | -4.53025 | 136.88830 | 109 ft | 140 kts | 122° |
| 2026-04-28 08:51 | -4.53619 | 136.89779 | 282 ft | 170 kts | 123° |
| 2026-04-28 08:51 | -4.54243 | 136.90744 | 1021 ft | 166 kts | 124° |
| 2026-04-28 08:52 | -4.54904 | 136.91744 | 1456 ft | 183 kts | 124° |
| 2026-04-28 08:52 | -4.55633 | 136.92871 | 1738 ft | 203 kts | 124° |
| 2026-04-28 08:52 | -4.56420 | 136.94118 | 2072 ft | 219 kts | 123° |
| 2026-04-28 08:52 | -4.57270 | 136.95459 | 2460 ft | 237 kts | 126° |
| 2026-04-28 08:53 | -4.58527 | 136.96503 | 3125 ft | 239 kts | 163° |
| 2026-04-28 08:53 | -4.60160 | 136.96539 | 3870 ft | 240 kts | 200° |
| 2026-04-28 08:53 | -4.61541 | 136.95614 | 4630 ft | 242 kts | 223° |
| 2026-04-28 08:53 | -4.62748 | 136.94430 | 5399 ft | 245 kts | 226° |
| 2026-04-28 08:54 | -4.63988 | 136.93133 | 5749 ft | 269 kts | 226° |
| 2026-04-28 08:54 | -4.65305 | 136.91742 | 6345 ft | 280 kts | 226° |
| 2026-04-28 08:54 | -4.66660 | 136.90322 | 7112 ft | 284 kts | 226° |
| 2026-04-28 08:54 | -4.68044 | 136.88892 | 7897 ft | 288 kts | 225° |
| 2026-04-28 08:55 | -4.69454 | 136.87454 | 8666 ft | 291 kts | 225° |
| 2026-04-28 08:55 | -4.70889 | 136.86001 | 9419 ft | 295 kts | 225° |
| 2026-04-28 08:55 | -4.72342 | 136.84535 | 10142 ft | 299 kts | 225° |
| 2026-04-28 08:55 | -4.73854 | 136.83012 | 10490 ft | 317 kts | 225° |
| 2026-04-28 08:56 | -4.75453 | 136.81402 | 11079 ft | 325 kts | 225° |
| 2026-04-28 08:56 | -4.77038 | 136.79807 | 11748 ft | 329 kts | 225° |
| 2026-04-28 08:56 | -4.78660 | 136.78175 | 12432 ft | 332 kts | 225° |
| 2026-04-28 08:56 | -4.80285 | 136.76512 | 13100 ft | 335 kts | 229° |
| 2026-04-28 08:57 | -4.81657 | 136.74575 | 13755 ft | 339 kts | 241° |
| 2026-04-28 08:57 | -4.82582 | 136.72393 | 14388 ft | 342 kts | 253° |
| 2026-04-28 08:57 | -4.83073 | 136.70054 | 15018 ft | 345 kts | 260° |
| 2026-04-28 08:57 | -4.83483 | 136.67680 | 15632 ft | 347 kts | 260° |
| 2026-04-28 08:58 | -4.83904 | 136.65289 | 16235 ft | 349 kts | 260° |
| 2026-04-28 08:58 | -4.84330 | 136.62884 | 16805 ft | 352 kts | 260° |
| 2026-04-28 08:58 | -4.84762 | 136.60463 | 17344 ft | 355 kts | 260° |
| 2026-04-28 08:58 | -4.85202 | 136.58009 | 17876 ft | 358 kts | 260° |
| 2026-04-28 08:59 | -4.85643 | 136.55541 | 18389 ft | 362 kts | 261° |
| 2026-04-28 08:59 | -4.86085 | 136.53046 | 18882 ft | 365 kts | 261° |
| 2026-04-28 08:59 | -4.86531 | 136.50528 | 19392 ft | 368 kts | 261° |
| 2026-04-28 08:59 | -4.86977 | 136.47992 | 19907 ft | 371 kts | 260° |
| 2026-04-28 09:00 | -4.87427 | 136.45436 | 20410 ft | 373 kts | 260° |
| 2026-04-28 09:00 | -4.87883 | 136.42865 | 20901 ft | 376 kts | 260° |
| 2026-04-28 09:00 | -4.88343 | 136.40280 | 21375 ft | 379 kts | 259° |
| 2026-04-28 09:00 | -4.88806 | 136.37668 | 21791 ft | 383 kts | 259° |
| 2026-04-28 09:01 | -4.89278 | 136.34997 | 21922 ft | 395 kts | 259° |
| 2026-04-28 09:01 | -4.89762 | 136.32261 | 22167 ft | 402 kts | 259° |
| 2026-04-28 09:01 | -4.90254 | 136.29484 | 22515 ft | 406 kts | 259° |
| 2026-04-28 09:01 | -4.90749 | 136.26683 | 22881 ft | 410 kts | 259° |
| 2026-04-28 09:02 | -4.91252 | 136.23859 | 23240 ft | 413 kts | 259° |
| 2026-04-28 09:02 | -4.91760 | 136.21014 | 23608 ft | 416 kts | 259° |
| 2026-04-28 09:02 | -4.92267 | 136.18145 | 23963 ft | 419 kts | 259° |
| 2026-04-28 09:02 | -4.92773 | 136.15255 | 24320 ft | 422 kts | 260° |
| 2026-04-28 09:03 | -4.93282 | 136.12343 | 24669 ft | 425 kts | 260° |
| 2026-04-28 09:03 | -4.93798 | 136.09419 | 25012 ft | 428 kts | 260° |
| 2026-04-28 09:03 | -4.94316 | 136.06474 | 25352 ft | 430 kts | 260° |
| 2026-04-28 09:03 | -4.94837 | 136.03510 | 25698 ft | 432 kts | 260° |
| 2026-04-28 09:04 | -4.95359 | 136.00536 | 26093 ft | 433 kts | 260° |
| 2026-04-28 09:04 | -4.95658 | 135.97533 | 26431 ft | 434 kts | 271° |
| 2026-04-28 09:04 | -4.95309 | 135.94526 | 26734 ft | 436 kts | 284° |
| 2026-04-28 09:04 | -4.94308 | 135.91659 | 27035 ft | 438 kts | 296° |
| 2026-04-28 09:05 | -4.92707 | 135.89065 | 27319 ft | 439 kts | 309° |
| 2026-04-28 09:05 | -4.90725 | 135.86720 | 27600 ft | 441 kts | 310° |
| 2026-04-28 09:05 | -4.88725 | 135.84375 | 27884 ft | 443 kts | 310° |
| 2026-04-28 09:05 | -4.86723 | 135.82015 | 28165 ft | 445 kts | 310° |
| 2026-04-28 09:06 | -4.84733 | 135.79670 | 28436 ft | 436 kts | 310° |
| 2026-04-28 09:06 | -4.82779 | 135.77373 | 28712 ft | 432 kts | 310° |
| 2026-04-28 09:06 | -4.80828 | 135.75078 | 29011 ft | 433 kts | 310° |
| 2026-04-28 09:06 | -4.78872 | 135.72779 | 29309 ft | 435 kts | 310° |
| 2026-04-28 09:07 | -4.76904 | 135.70470 | 29593 ft | 436 kts | 310° |
| 2026-04-28 09:07 | -4.74930 | 135.68150 | 29868 ft | 438 kts | 310° |
| 2026-04-28 09:07 | -4.72945 | 135.65818 | 30141 ft | 440 kts | 310° |
| 2026-04-28 09:07 | -4.70953 | 135.63481 | 30409 ft | 442 kts | 310° |
| 2026-04-28 09:08 | -4.68946 | 135.61128 | 30635 ft | 445 kts | 311° |
| 2026-04-28 09:08 | -4.66926 | 135.58759 | 30861 ft | 448 kts | 310° |
| 2026-04-28 09:08 | -4.64899 | 135.56376 | 31081 ft | 452 kts | 310° |
| 2026-04-28 09:08 | -4.62851 | 135.53969 | 31197 ft | 457 kts | 310° |
| 2026-04-28 09:09 | -4.60777 | 135.51535 | 31325 ft | 461 kts | 311° |
| 2026-04-28 09:09 | -4.58684 | 135.49083 | 31451 ft | 465 kts | 311° |
| 2026-04-28 09:09 | -4.56569 | 135.46613 | 31608 ft | 468 kts | 311° |
| 2026-04-28 09:09 | -4.54448 | 135.44131 | 31862 ft | 469 kts | 311° |
| 2026-04-28 09:10 | -4.52330 | 135.41649 | 32128 ft | 469 kts | 311° |
| 2026-04-28 09:10 | -4.50211 | 135.39164 | 32412 ft | 469 kts | 311° |
| 2026-04-28 09:10 | -4.48096 | 135.36680 | 32692 ft | 468 kts | 311° |
| 2026-04-28 09:10 | -4.45984 | 135.34195 | 32983 ft | 468 kts | 311° |
| 2026-04-28 09:11 | -4.43878 | 135.31717 | 33289 ft | 467 kts | 311° |
| 2026-04-28 09:11 | -4.41770 | 135.29240 | 33577 ft | 467 kts | 311° |
| 2026-04-28 09:11 | -4.39662 | 135.26771 | 33857 ft | 466 kts | 311° |
| 2026-04-28 09:11 | -4.37587 | 135.24287 | 34120 ft | 466 kts | 307° |
| 2026-04-28 09:12 | -4.35850 | 135.21549 | 34370 ft | 466 kts | 297° |
| 2026-04-28 09:12 | -4.34579 | 135.18564 | 34597 ft | 467 kts | 288° |
| 2026-04-28 09:12 | -4.33805 | 135.15403 | 34805 ft | 467 kts | 278° |
| 2026-04-28 09:12 | -4.33449 | 135.12171 | 35008 ft | 468 kts | 276° |
| 2026-04-28 09:13 | -4.33130 | 135.08930 | 35218 ft | 467 kts | 276° |
| 2026-04-28 09:13 | -4.32806 | 135.05685 | 35434 ft | 467 kts | 276° |
| 2026-04-28 09:13 | -4.32481 | 135.02452 | 35649 ft | 467 kts | 275° |
| 2026-04-28 09:13 | -4.32153 | 134.99216 | 35784 ft | 467 kts | 275° |
| 2026-04-28 09:14 | -4.31825 | 134.95997 | 35812 ft | 463 kts | 275° |
| 2026-04-28 09:14 | -4.31171 | 134.89561 | 35811 ft | 460 kts | 275° |
| 2026-04-28 09:15 | -4.30529 | 134.83230 | 35811 ft | 460 kts | 275° |
| 2026-04-28 09:15 | -4.29885 | 134.76813 | 35810 ft | 460 kts | 275° |
| 2026-04-28 09:16 | -4.29249 | 134.70444 | 35811 ft | 460 kts | 275° |
| 2026-04-28 09:16 | -4.28610 | 134.64068 | 35812 ft | 460 kts | 275° |
| 2026-04-28 09:17 | -4.27967 | 134.57693 | 35813 ft | 460 kts | 275° |
| 2026-04-28 09:17 | -4.27321 | 134.51327 | 35813 ft | 460 kts | 275° |
| 2026-04-28 09:18 | -4.26673 | 134.44957 | 35821 ft | 459 kts | 275° |
| 2026-04-28 09:18 | -4.26032 | 134.38600 | 35832 ft | 458 kts | 275° |
| 2026-04-28 09:19 | -4.25391 | 134.32265 | 35832 ft | 457 kts | 275° |
| 2026-04-28 09:19 | -4.24754 | 134.25940 | 35830 ft | 456 kts | 275° |
| 2026-04-28 09:20 | -4.24108 | 134.19625 | 35828 ft | 455 kts | 275° |
| 2026-04-28 09:20 | -4.23461 | 134.13312 | 35825 ft | 455 kts | 275° |
| 2026-04-28 09:21 | -4.22818 | 134.06959 | 35811 ft | 463 kts | 275° |
| 2026-04-28 09:21 | -4.22161 | 134.00474 | 35811 ft | 471 kts | 275° |
| 2026-04-28 09:22 | -4.21490 | 133.93932 | 35811 ft | 473 kts | 275° |
| 2026-04-28 09:22 | -4.20827 | 133.87376 | 35811 ft | 473 kts | 275° |
| 2026-04-28 09:23 | -4.20164 | 133.80821 | 35811 ft | 473 kts | 275° |
| 2026-04-28 09:23 | -4.19489 | 133.74265 | 35820 ft | 473 kts | 275° |
| 2026-04-28 09:24 | -4.18818 | 133.67714 | 35834 ft | 472 kts | 275° |
| 2026-04-28 09:24 | -4.18150 | 133.61191 | 35839 ft | 470 kts | 275° |
| 2026-04-28 09:25 | -4.17483 | 133.54691 | 35838 ft | 468 kts | 275° |
| 2026-04-28 09:25 | -4.16823 | 133.48208 | 35835 ft | 467 kts | 275° |
| 2026-04-28 09:26 | -4.16274 | 133.42831 | 35833 ft | 467 kts | 275° |
| 2026-04-28 09:26 | -4.15497 | 133.35268 | 35829 ft | 466 kts | 275° |
| 2026-04-28 09:27 | -4.14615 | 133.26670 | 35827 ft | 466 kts | 275° |
| 2026-04-28 09:27 | -4.13944 | 133.20213 | 35825 ft | 466 kts | 275° |
| 2026-04-28 09:28 | -4.13279 | 133.13751 | 35825 ft | 466 kts | 275° |
| 2026-04-28 09:28 | -4.12617 | 133.07255 | 35824 ft | 466 kts | 275° |
| 2026-04-28 09:29 | -4.11955 | 133.00798 | 35823 ft | 466 kts | 275° |
| 2026-04-28 09:29 | -4.11293 | 132.94347 | 35823 ft | 466 kts | 275° |
| 2026-04-28 09:30 | -4.10623 | 132.87892 | 35821 ft | 466 kts | 275° |
| 2026-04-28 09:30 | -4.09944 | 132.81437 | 35821 ft | 466 kts | 275° |
| 2026-04-28 09:31 | -4.09277 | 132.74978 | 35823 ft | 466 kts | 275° |
| 2026-04-28 09:31 | -4.08618 | 132.68523 | 35823 ft | 466 kts | 275° |
| 2026-04-28 09:32 | -4.07953 | 132.62071 | 35823 ft | 466 kts | 275° |
| 2026-04-28 09:32 | -4.07280 | 132.55614 | 35821 ft | 466 kts | 275° |
| 2026-04-28 09:33 | -4.06613 | 132.49164 | 35834 ft | 466 kts | 275° |
| 2026-04-28 09:33 | -4.05940 | 132.42706 | 35828 ft | 467 kts | 275° |
| 2026-04-28 09:34 | -4.05266 | 132.36227 | 35815 ft | 469 kts | 275° |
| 2026-04-28 09:34 | -4.04592 | 132.29712 | 35812 ft | 471 kts | 275° |
| 2026-04-28 09:35 | -4.03918 | 132.23168 | 35815 ft | 473 kts | 275° |
| 2026-04-28 09:35 | -4.03232 | 132.16604 | 35820 ft | 474 kts | 275° |
| 2026-04-28 09:36 | -4.02545 | 132.10026 | 35826 ft | 475 kts | 275° |
| 2026-04-28 09:36 | -4.01851 | 132.03445 | 35833 ft | 476 kts | 275° |
| 2026-04-28 09:37 | -4.01166 | 131.96854 | 35838 ft | 476 kts | 275° |
| 2026-04-28 09:37 | -4.00480 | 131.90260 | 35843 ft | 476 kts | 275° |
| 2026-04-28 09:38 | -3.99790 | 131.83664 | 35861 ft | 477 kts | 275° |
| 2026-04-28 09:38 | -3.99099 | 131.77044 | 35875 ft | 478 kts | 275° |
| 2026-04-28 09:39 | -3.98410 | 131.70410 | 35883 ft | 479 kts | 275° |
| 2026-04-28 09:39 | -3.97715 | 131.63771 | 35890 ft | 480 kts | 275° |
| 2026-04-28 09:40 | -3.97015 | 131.57127 | 35895 ft | 480 kts | 275° |
| 2026-04-28 09:40 | -3.96314 | 131.50483 | 35899 ft | 480 kts | 275° |
| 2026-04-28 09:41 | -3.95613 | 131.43835 | 35902 ft | 480 kts | 275° |
| 2026-04-28 09:41 | -3.94920 | 131.37192 | 35904 ft | 480 kts | 275° |
| 2026-04-28 09:42 | -3.94225 | 131.30539 | 35905 ft | 480 kts | 275° |
| 2026-04-28 09:42 | -3.93524 | 131.23892 | 35905 ft | 480 kts | 275° |
| 2026-04-28 09:43 | -3.92821 | 131.17244 | 35903 ft | 480 kts | 275° |
| 2026-04-28 09:43 | -3.92127 | 131.10586 | 35902 ft | 481 kts | 275° |
| 2026-04-28 09:44 | -3.91422 | 131.03935 | 35903 ft | 481 kts | 275° |
| 2026-04-28 09:44 | -3.90707 | 130.97224 | 35904 ft | 481 kts | 275° |
| 2026-04-28 09:45 | -3.90003 | 130.90564 | 35905 ft | 481 kts | 275° |
| 2026-04-28 09:45 | -3.89304 | 130.83902 | 35905 ft | 481 kts | 275° |
| 2026-04-28 09:46 | -3.88604 | 130.77242 | 35906 ft | 481 kts | 275° |
| 2026-04-28 09:46 | -3.87900 | 130.70578 | 35906 ft | 481 kts | 275° |
| 2026-04-28 09:47 | -3.87185 | 130.63920 | 35907 ft | 481 kts | 275° |
| 2026-04-28 09:47 | -3.86475 | 130.57258 | 35907 ft | 481 kts | 275° |
| 2026-04-28 09:48 | -3.85773 | 130.50594 | 35904 ft | 481 kts | 275° |
| 2026-04-28 09:48 | -3.85067 | 130.43925 | 35903 ft | 482 kts | 275° |
| 2026-04-28 09:49 | -3.84357 | 130.37253 | 35904 ft | 482 kts | 275° |
| 2026-04-28 09:49 | -3.83638 | 130.30577 | 35904 ft | 482 kts | 275° |
| 2026-04-28 09:50 | -3.82931 | 130.23906 | 35905 ft | 482 kts | 275° |
| 2026-04-28 09:50 | -3.82229 | 130.17228 | 35906 ft | 482 kts | 275° |
| 2026-04-28 09:51 | -3.81523 | 130.10548 | 35906 ft | 482 kts | 275° |
| 2026-04-28 09:51 | -3.80810 | 130.03874 | 35907 ft | 482 kts | 275° |
| 2026-04-28 09:52 | -3.80092 | 129.97198 | 35907 ft | 482 kts | 275° |
| 2026-04-28 09:52 | -3.79376 | 129.90526 | 35907 ft | 482 kts | 275° |
| 2026-04-28 09:53 | -3.78658 | 129.83847 | 35897 ft | 483 kts | 276° |
| 2026-04-28 09:53 | -3.77606 | 129.77195 | 35889 ft | 484 kts | 280° |
| 2026-04-28 09:54 | -3.76287 | 129.70575 | 35890 ft | 485 kts | 281° |
| 2026-04-28 09:54 | -3.74985 | 129.63946 | 35893 ft | 485 kts | 280° |
| 2026-04-28 09:55 | -3.73778 | 129.57297 | 35897 ft | 486 kts | 279° |
| 2026-04-28 09:55 | -3.72606 | 129.50634 | 35900 ft | 486 kts | 279° |
| 2026-04-28 09:56 | -3.71413 | 129.43976 | 35902 ft | 486 kts | 279° |
| 2026-04-28 09:56 | -3.70195 | 129.37340 | 35171 ft | 484 kts | 279° |
| 2026-04-28 09:57 | -3.69588 | 129.34023 | 34381 ft | 485 kts | 279° |
| 2026-04-28 09:57 | -3.68978 | 129.30690 | 33569 ft | 487 kts | 279° |
| 2026-04-28 09:57 | -3.68677 | 129.27328 | 32754 ft | 486 kts | 266° |
| 2026-04-28 09:57 | -3.69245 | 129.24011 | 31921 ft | 484 kts | 252° |
| 2026-04-28 09:58 | -3.70268 | 129.20794 | 30970 ft | 487 kts | 251° |
| 2026-04-28 09:58 | -3.71320 | 129.17566 | 30023 ft | 489 kts | 251° |
| 2026-04-28 09:58 | -3.72389 | 129.14325 | 29228 ft | 488 kts | 250° |
| 2026-04-28 09:58 | -3.73447 | 129.11119 | 28575 ft | 483 kts | 251° |
| 2026-04-28 09:59 | -3.74487 | 129.07945 | 27917 ft | 478 kts | 251° |
| 2026-04-28 09:59 | -3.75515 | 129.04795 | 27243 ft | 473 kts | 251° |
| 2026-04-28 09:59 | -3.76527 | 129.01679 | 26595 ft | 469 kts | 251° |
| 2026-04-28 09:59 | -3.77527 | 128.98586 | 25951 ft | 465 kts | 251° |
| 2026-04-28 10:00 | -3.78519 | 128.95521 | 25314 ft | 461 kts | 251° |
| 2026-04-28 10:00 | -3.79505 | 128.92484 | 24726 ft | 455 kts | 251° |
| 2026-04-28 10:00 | -3.80472 | 128.89508 | 24367 ft | 445 kts | 251° |
| 2026-04-28 10:00 | -3.81422 | 128.86576 | 23850 ft | 440 kts | 251° |
| 2026-04-28 10:01 | -3.82361 | 128.83676 | 23349 ft | 435 kts | 251° |
| 2026-04-28 10:01 | -3.83289 | 128.80809 | 22849 ft | 430 kts | 252° |
| 2026-04-28 10:01 | -3.84206 | 128.77983 | 22349 ft | 424 kts | 252° |
| 2026-04-28 10:01 | -3.85113 | 128.75189 | 21844 ft | 420 kts | 252° |
| 2026-04-28 10:02 | -3.86011 | 128.72421 | 21352 ft | 416 kts | 252° |
| 2026-04-28 10:02 | -3.86612 | 128.70568 | 21013 ft | 413 kts | 252° |
| 2026-04-28 10:02 | -3.87497 | 128.67846 | 20509 ft | 409 kts | 252° |
| 2026-04-28 10:02 | -3.88374 | 128.65149 | 20008 ft | 405 kts | 252° |
| 2026-04-28 10:03 | -3.89243 | 128.62476 | 19509 ft | 402 kts | 252° |
| 2026-04-28 10:03 | -3.90104 | 128.59825 | 19009 ft | 399 kts | 252° |
| 2026-04-28 10:03 | -3.90958 | 128.57192 | 18509 ft | 396 kts | 252° |
| 2026-04-28 10:03 | -3.91805 | 128.54574 | 18000 ft | 394 kts | 252° |
| 2026-04-28 10:04 | -3.92644 | 128.51977 | 17511 ft | 391 kts | 252° |
| 2026-04-28 10:04 | -3.93478 | 128.49394 | 17007 ft | 389 kts | 252° |
| 2026-04-28 10:04 | -3.94310 | 128.46826 | 16505 ft | 386 kts | 252° |
| 2026-04-28 10:04 | -3.95140 | 128.44275 | 16005 ft | 384 kts | 252° |
| 2026-04-28 10:05 | -3.95963 | 128.41740 | 15505 ft | 382 kts | 252° |
| 2026-04-28 10:05 | -3.96779 | 128.39217 | 15006 ft | 380 kts | 252° |
| 2026-04-28 10:05 | -3.97591 | 128.36702 | 14504 ft | 378 kts | 252° |
| 2026-04-28 10:05 | -3.98400 | 128.34207 | 14003 ft | 376 kts | 252° |
| 2026-04-28 10:06 | -3.99379 | 128.31795 | 13501 ft | 374 kts | 241° |
| 2026-04-28 10:06 | -4.00865 | 128.29673 | 13001 ft | 371 kts | 233° |
| 2026-04-28 10:06 | -4.02422 | 128.27620 | 12498 ft | 368 kts | 233° |
| 2026-04-28 10:06 | -4.03966 | 128.25588 | 11999 ft | 365 kts | 233° |
| 2026-04-28 10:07 | -4.05495 | 128.23576 | 11500 ft | 362 kts | 233° |
| 2026-04-28 10:07 | -4.07011 | 128.21578 | 10989 ft | 359 kts | 233° |
| 2026-04-28 10:07 | -4.08512 | 128.19599 | 10497 ft | 355 kts | 233° |
| 2026-04-28 10:07 | -4.10000 | 128.17637 | 10095 ft | 350 kts | 233° |
| 2026-04-28 10:08 | -4.11440 | 128.15738 | 9984 ft | 335 kts | 233° |
| 2026-04-28 10:08 | -4.12745 | 128.13882 | 10009 ft | 317 kts | 244° |
| 2026-04-28 10:08 | -4.13273 | 128.11821 | 10003 ft | 299 kts | 271° |
| 2026-04-28 10:08 | -4.12863 | 128.09850 | 9844 ft | 288 kts | 296° |
| 2026-04-28 10:09 | -4.11637 | 128.08277 | 9377 ft | 289 kts | 322° |
| 2026-04-28 10:09 | -4.10047 | 128.07056 | 8987 ft | 288 kts | 323° |
| 2026-04-28 10:09 | -4.08456 | 128.05838 | 8610 ft | 287 kts | 323° |
| 2026-04-28 10:09 | -4.06876 | 128.04622 | 8235 ft | 286 kts | 322° |
| 2026-04-28 10:10 | -4.05305 | 128.03407 | 7863 ft | 284 kts | 322° |
| 2026-04-28 10:10 | -4.03746 | 128.02197 | 7493 ft | 283 kts | 322° |
| 2026-04-28 10:10 | -4.02200 | 128.00992 | 7124 ft | 281 kts | 322° |
| 2026-04-28 10:10 | -4.00686 | 127.99815 | 6761 ft | 269 kts | 322° |
| 2026-04-28 10:11 | -3.99238 | 127.98688 | 6421 ft | 258 kts | 322° |
| 2026-04-28 10:11 | -3.97831 | 127.97594 | 6085 ft | 256 kts | 322° |
| 2026-04-28 10:11 | -3.96429 | 127.96506 | 5757 ft | 254 kts | 322° |
| 2026-04-28 10:11 | -3.95042 | 127.95427 | 5411 ft | 252 kts | 322° |
| 2026-04-28 10:12 | -3.93666 | 127.94355 | 5105 ft | 249 kts | 322° |
| 2026-04-28 10:12 | -3.92302 | 127.93295 | 4777 ft | 245 kts | 322° |
| 2026-04-28 10:12 | -3.90975 | 127.92285 | 4463 ft | 234 kts | 329° |
| 2026-04-28 10:12 | -3.89452 | 127.91805 | 4168 ft | 231 kts | 1° |
| 2026-04-28 10:13 | -3.87929 | 127.92217 | 3839 ft | 229 kts | 33° |
| 2026-04-28 10:13 | -3.86738 | 127.93270 | 3503 ft | 229 kts | 46° |
| 2026-04-28 10:13 | -3.85617 | 127.94410 | 3185 ft | 229 kts | 46° |
| 2026-04-28 10:13 | -3.84493 | 127.95540 | 2906 ft | 228 kts | 45° |
| 2026-04-28 10:14 | -3.83391 | 127.96641 | 2737 ft | 221 kts | 45° |
| 2026-04-28 10:14 | -3.82314 | 127.97714 | 2560 ft | 215 kts | 45° |
| 2026-04-28 10:14 | -3.81267 | 127.98757 | 2389 ft | 210 kts | 45° |
| 2026-04-28 10:14 | -3.80244 | 127.99777 | 2213 ft | 205 kts | 46° |
| 2026-04-28 10:15 | -3.79247 | 128.00771 | 2045 ft | 199 kts | 46° |
| 2026-04-28 10:15 | -3.78296 | 128.01718 | 1836 ft | 186 kts | 47° |
| 2026-04-28 10:15 | -3.77417 | 128.02594 | 1600 ft | 172 kts | 47° |
| 2026-04-28 10:15 | -3.76598 | 128.03410 | 1368 ft | 161 kts | 47° |
| 2026-04-28 10:16 | -3.75824 | 128.04181 | 1173 ft | 152 kts | 47° |
| 2026-04-28 10:16 | -3.75084 | 128.04919 | 964 ft | 149 kts | 47° |
| 2026-04-28 10:16 | -3.74350 | 128.05651 | 771 ft | 149 kts | 46° |
| 2026-04-28 10:16 | -3.73616 | 128.06383 | 575 ft | 149 kts | 46° |
| 2026-04-28 10:17 | -3.72885 | 128.07113 | 381 ft | 148 kts | 45° |
| 2026-04-28 10:17 | -3.72159 | 128.07842 | 166 ft | 147 kts | 45° |
| 2026-04-28 10:17 | -3.71445 | 128.08549 | 48 ft | 136 kts | 45° |
| 2026-04-28 10:17 | -3.70854 | 128.09139 | 35 ft | 90 kts | 45° |
| 2026-04-28 10:18 | -3.70596 | 128.09396 | 36 ft | 30 kts | 45° |
| 2026-04-28 10:18 | -3.70528 | 128.09489 | 36 ft | 8 kts | 52° |
| 2026-04-28 10:18 | -3.70508 | 128.09479 | 36 ft | 5 kts | 256° |
| 2026-04-28 10:18 | -3.70549 | 128.09438 | 36 ft | 11 kts | 225° |
| 2026-04-28 10:19 | -3.70621 | 128.09369 | 36 ft | 17 kts | 223° |
| 2026-04-28 10:19 | -3.70719 | 128.09275 | 37 ft | 22 kts | 225° |
| 2026-04-28 10:19 | -3.70841 | 128.09155 | 35 ft | 27 kts | 225° |
| 2026-04-28 10:19 | -3.70985 | 128.09010 | 35 ft | 29 kts | 225° |
| 2026-04-28 10:20 | -3.71087 | 128.08909 | 34 ft | 12 kts | 225° |
| 2026-04-28 10:20 | -3.71080 | 128.08851 | 33 ft | 10 kts | 308° |
| 2026-04-28 10:20 | -3.71036 | 128.08807 | 35 ft | 8 kts | 315° |
| 2026-04-28 10:20 | -3.70995 | 128.08773 | 35 ft | 9 kts | 333° |
| 2026-04-28 10:21 | -3.70917 | 128.08766 | 36 ft | 14 kts | 0° |
| 2026-04-28 10:21 | -3.70809 | 128.08767 | 36 ft | 17 kts | 0° |
| 2026-04-28 10:21 | -3.70722 | 128.08771 | 36 ft | 8 kts | 19° |
| 2026-04-28 10:21 | -3.70696 | 128.08819 | 36 ft | 8 kts | 86° |
| 2026-04-28 10:22 | -3.70696 | 128.08872 | 36 ft | 7 kts | 90° |
| 2026-04-28 10:22 | -3.70676 | 128.08893 | 36 ft | 4 kts | 8° |
| 2026-04-28 10:22 | -3.70652 | 128.08893 | 36 ft | 3 kts | 359° |
| 2026-04-28 10:22 | -3.70632 | 128.08893 | 36 ft | 2 kts | 359° |
| 2026-04-28 10:23 | -3.70627 | 128.08893 | 36 ft | 0 kts | 359° |